createdAt,value
2016-02-01T00:00:34.163Z,98.3
2016-02-01T00:01:34.120Z,98.8
2016-02-01T00:02:34.043Z,99.5
2016-02-01T00:03:34.000Z,99.9
2016-02-01T00:04:33.943Z,99.6
2016-02-01T00:05:33.883Z,99.3
2016-02-01T00:06:33.823Z,99.2
2016-02-01T00:07:33.795Z,99.1
2016-02-01T00:08:33.719Z,98.9
2016-02-01T00:09:33.675Z,99
2016-02-01T00:10:33.631Z,99.3
2016-02-01T00:11:33.571Z,99.2
2016-02-01T00:12:33.511Z,99.2
2016-02-01T00:13:33.483Z,99.5
2016-02-01T00:14:33.392Z,99.8
2016-02-01T00:15:33.348Z,99.7
2016-02-01T00:16:33.288Z,99.6
2016-02-01T00:17:33.244Z,99.6
2016-02-01T00:18:33.419Z,99.5
2016-02-01T00:19:33.125Z,99.6
2016-02-01T00:20:33.065Z,99.8
2016-02-01T00:21:33.017Z,99.9
2016-02-01T00:22:32.957Z,99.9
2016-02-01T00:23:32.913Z,99.9
2016-02-01T00:24:32.866Z,99.9
2016-02-01T00:25:32.791Z,99.9
2016-02-01T00:26:32.950Z,99.9
2016-02-01T00:27:32.642Z,99.9
2016-02-01T00:28:31.832Z,99.9
2016-02-01T00:29:32.556Z,99.9
2016-02-01T00:30:32.444Z,99.9
2016-02-01T00:31:32.628Z,99.9
2016-02-01T00:32:32.329Z,99.9
2016-02-01T00:33:32.265Z,99.9
2016-02-01T00:34:32.215Z,99.9
2016-02-01T00:35:32.153Z,99.9
2016-02-01T00:36:32.108Z,99.9
2016-02-01T00:37:32.045Z,99.9
2016-02-01T00:38:32.015Z,99.9
2016-02-01T00:39:31.939Z,99.9
2016-02-01T00:40:31.863Z,99.9
2016-02-01T00:41:32.054Z,99.9
2016-02-01T00:42:31.993Z,99.9
2016-02-01T00:43:31.698Z,99.9
2016-02-01T00:44:31.654Z,99.9
2016-02-01T00:45:31.607Z,99.9
2016-02-01T00:46:31.547Z,99.9
2016-02-01T00:47:31.502Z,99.9
2016-02-01T00:48:31.428Z,99.9
2016-02-01T00:49:31.385Z,99.9
2016-02-01T00:50:31.326Z,99.9
2016-02-01T00:51:31.265Z,99.9
2016-02-01T00:52:31.206Z,99.9
2016-02-01T00:53:31.150Z,99.9
2016-02-01T00:54:31.105Z,99.9
2016-02-01T00:55:31.062Z,99.9
2016-02-01T00:56:30.991Z,99.9
2016-02-01T00:57:30.946Z,99.9
2016-02-01T00:58:30.886Z,99.9
2016-02-01T00:59:30.842Z,99.9
2016-02-01T01:00:30.784Z,99.9
2016-02-01T01:01:29.990Z,99.9
2016-02-01T01:02:30.665Z,99.9
2016-02-01T01:03:30.620Z,99.9
2016-02-01T01:04:30.560Z,99.9
2016-02-01T01:05:30.738Z,99.9
2016-02-01T01:06:30.459Z,99.9
2016-02-01T01:07:30.399Z,99.9
2016-02-01T01:08:30.590Z,99.9
2016-02-01T01:09:30.299Z,99.9
2016-02-01T01:10:30.255Z,99.9
2016-02-01T01:11:30.180Z,99.9
2016-02-01T01:12:30.136Z,99.9
2016-02-01T01:13:30.075Z,99.9
2016-02-01T01:14:30.017Z,99.9
2016-02-01T01:15:29.972Z,99.9
2016-02-01T01:16:29.913Z,99.9
2016-02-01T01:17:29.869Z,99.9
2016-02-01T01:18:29.808Z,99.9
2016-02-01T01:19:29.749Z,99.9
2016-02-01T01:20:29.693Z,99.9
2016-02-01T01:21:29.649Z,99.9
2016-02-01T01:22:29.590Z,99.9
2016-02-01T01:23:29.530Z,99.9
2016-02-01T01:24:29.485Z,99.9
2016-02-01T01:25:29.426Z,99.9
2016-02-01T01:26:29.382Z,99.9
2016-02-01T01:27:29.322Z,99.9
2016-02-01T01:28:29.262Z,99.9
2016-02-01T01:29:29.219Z,99.9
2016-02-01T01:30:29.175Z,99.9
2016-02-01T01:31:29.116Z,99.9
2016-02-01T01:32:29.055Z,99.9
2016-02-01T01:33:29.011Z,99.9
2016-02-01T01:34:28.937Z,99.9
2016-02-01T01:35:28.892Z,99.9
2016-02-01T01:36:28.833Z,99.9
2016-02-01T01:37:28.789Z,99.9
2016-02-01T01:38:28.746Z,99.9
2016-02-01T01:39:28.685Z,99.9
2016-02-01T01:40:28.626Z,99.9
2016-02-01T01:41:28.585Z,99.9
2016-02-01T01:42:28.525Z,99.9
2016-02-01T01:43:28.465Z,99.9
2016-02-01T01:44:28.406Z,99.9
2016-02-01T01:45:28.361Z,99.9
2016-02-01T01:46:28.301Z,99.9
2016-02-01T01:47:28.257Z,99.9
2016-02-01T01:48:28.417Z,99.9
2016-02-01T01:49:28.137Z,99.9
2016-02-01T01:50:28.097Z,99.9
2016-02-01T01:51:28.037Z,99.9
2016-02-01T01:52:27.977Z,99.9
2016-02-01T01:53:27.933Z,99.9
2016-02-01T01:54:27.875Z,99.9
2016-02-01T01:55:27.830Z,99.9
2016-02-01T01:56:27.771Z,99.9
2016-02-01T01:57:27.711Z,99.9
2016-02-01T01:58:27.651Z,99.9
2016-02-01T01:59:27.846Z,99.9
2016-02-01T02:00:27.552Z,99.9
2016-02-01T02:01:27.493Z,99.9
2016-02-01T02:02:27.464Z,99.9
2016-02-01T02:03:27.405Z,99.9
2016-02-01T02:04:27.327Z,99.9
2016-02-01T02:05:27.274Z,99.9
2016-02-01T02:06:33.514Z,99.9
2016-02-01T02:07:27.171Z,99.9
2016-02-01T02:08:27.110Z,99.9
2016-02-01T02:09:27.066Z,99.9
2016-02-01T02:10:27.022Z,99.9
2016-02-01T02:11:26.947Z,99.9
2016-02-01T02:12:27.139Z,99.9
2016-02-01T02:13:26.845Z,99.9
2016-02-01T02:14:26.817Z,99.9
2016-02-01T02:15:26.741Z,99.9
2016-02-01T02:16:26.682Z,99.9
2016-02-01T02:17:26.638Z,99.9
2016-02-01T02:18:26.579Z,99.9
2016-02-01T02:19:26.518Z,99.9
2016-02-01T02:20:26.459Z,99.9
2016-02-01T02:21:26.415Z,99.9
2016-02-01T02:22:26.354Z,99.9
2016-02-01T02:23:26.530Z,99.9
2016-02-01T02:24:26.252Z,99.9
2016-02-01T02:25:26.191Z,99.9
2016-02-01T02:26:26.148Z,99.9
2016-02-01T02:27:26.089Z,99.9
2016-02-01T02:28:26.028Z,99.9
2016-02-01T02:29:25.969Z,99.9
2016-02-01T02:30:25.928Z,99.9
2016-02-01T02:31:25.883Z,99.9
2016-02-01T02:32:25.808Z,99.9
2016-02-01T02:33:25.764Z,99.9
2016-02-01T02:34:25.704Z,99.9
2016-02-01T02:35:25.645Z,99.9
2016-02-01T02:36:25.601Z,99.9
2016-02-01T02:37:25.541Z,99.9
2016-02-01T02:38:25.497Z,99.9
2016-02-01T02:39:25.427Z,99.9
2016-02-01T02:40:25.382Z,99.9
2016-02-01T02:41:25.323Z,99.9
2016-02-01T02:42:25.278Z,99.9
2016-02-01T02:43:25.219Z,99.9
2016-02-01T02:44:25.175Z,99.9
2016-02-01T02:45:25.115Z,99.9
2016-02-01T02:46:25.058Z,99.9
2016-02-01T02:47:24.997Z,99.9
2016-02-01T02:48:24.953Z,99.9
2016-02-01T02:49:24.894Z,99.9
2016-02-01T02:50:24.834Z,99.9
2016-02-01T02:51:24.785Z,99.9
2016-02-01T02:52:24.741Z,99.9
2016-02-01T02:53:24.668Z,99.9
2016-02-01T02:54:24.624Z,99.9
2016-02-01T02:55:24.565Z,99.9
2016-02-01T02:56:24.521Z,99.9
2016-02-01T02:57:24.477Z,99.9
2016-02-01T02:58:24.401Z,99.9
2016-02-01T02:59:24.357Z,99.9
2016-02-01T03:00:24.299Z,99.9
2016-02-01T03:01:24.255Z,99.9
2016-02-01T03:02:24.179Z,99.9
2016-02-01T03:03:24.135Z,99.9
2016-02-01T03:04:24.078Z,99.9
2016-02-01T03:05:23.284Z,99.9
2016-02-01T03:06:23.975Z,99.9
2016-02-01T03:07:23.930Z,99.9
2016-02-01T03:08:23.871Z,99.9
2016-02-01T03:09:24.046Z,99.9
2016-02-01T03:10:23.751Z,99.9
2016-02-01T03:11:23.942Z,99.9
2016-02-01T03:12:23.648Z,99.9
2016-02-01T03:13:23.603Z,99.9
2016-02-01T03:14:23.780Z,99.9
2016-02-01T03:15:23.487Z,99.9
2016-02-01T03:16:23.427Z,99.9
2016-02-01T03:17:23.383Z,99.9
2016-02-01T03:18:23.324Z,99.9
2016-02-01T03:19:23.280Z,99.9
2016-02-01T03:20:23.472Z,99.9
2016-02-01T03:21:23.160Z,99.9
2016-02-01T03:22:23.131Z,99.9
2016-02-01T03:23:23.055Z,99.9
2016-02-01T03:24:23.000Z,99.9
2016-02-01T03:25:22.956Z,99.9
2016-02-01T03:26:22.895Z,99.9
2016-02-01T03:27:22.868Z,99.9
2016-02-01T03:28:22.793Z,99.9
2016-02-01T03:29:22.733Z,99.9
2016-02-01T03:30:22.705Z,99.9
2016-02-01T03:31:22.630Z,99.9
2016-02-01T03:32:22.569Z,99.9
2016-02-01T03:33:22.541Z,99.9
2016-02-01T03:34:22.466Z,99.9
2016-02-01T03:35:22.422Z,99.9
2016-02-01T03:36:22.410Z,99.9
2016-02-01T03:37:22.308Z,99.9
2016-02-01T03:38:22.295Z,99.9
2016-02-01T03:39:22.236Z,99.9
2016-02-01T03:40:22.178Z,99.9
2016-02-01T03:41:22.321Z,99.9
2016-02-01T03:42:22.028Z,99.9
2016-02-01T03:43:21.983Z,99.9
2016-02-01T03:44:21.971Z,99.9
2016-02-01T03:45:21.911Z,99.9
2016-02-01T03:46:21.819Z,99.9
2016-02-01T03:47:21.776Z,99.9
2016-02-01T03:48:21.716Z,99.9
2016-02-01T03:49:21.562Z,99.9
2016-02-01T03:50:21.612Z,99.9
2016-02-01T03:51:20.819Z,99.9
2016-02-01T03:52:21.498Z,99.9
2016-02-01T03:53:21.453Z,99.9
2016-02-01T03:54:21.409Z,99.9
2016-02-01T03:55:21.240Z,99.9
2016-02-01T03:56:21.306Z,99.9
2016-02-01T03:57:21.480Z,99.9
2016-02-01T03:58:21.185Z,99.9
2016-02-01T03:59:21.142Z,99.9
2016-02-01T04:00:21.113Z,99.9
2016-02-01T04:01:21.025Z,99.9
2016-02-01T04:02:20.966Z,99.9
2016-02-01T04:03:20.938Z,99.9
2016-02-01T04:04:20.878Z,99.9
2016-02-01T04:05:20.867Z,99.9
2016-02-01T04:06:20.995Z,99.9
2016-02-01T04:07:20.716Z,99.9
2016-02-01T04:08:20.672Z,99.9
2016-02-01T04:09:20.597Z,99.9
2016-02-01T04:10:20.537Z,99.9
2016-02-01T04:11:20.493Z,99.9
2016-02-01T04:12:20.433Z,99.9
2016-02-01T04:13:20.388Z,99.9
2016-02-01T04:14:20.329Z,99.9
2016-02-01T04:15:20.285Z,99.9
2016-02-01T04:16:20.506Z,99.9
2016-02-01T04:17:20.165Z,99.9
2016-02-01T04:18:20.199Z,99.9
2016-02-01T04:19:20.265Z,99.9
2016-02-01T04:20:20.095Z,99.9
2016-02-01T04:21:20.022Z,99.9
2016-02-01T04:22:19.978Z,99.9
2016-02-01T04:23:19.856Z,99.9
2016-02-01T04:24:19.812Z,99.9
2016-02-01T04:25:19.737Z,99.9
2016-02-01T04:26:20.084Z,99.9
2016-02-01T04:27:19.649Z,99.9
2016-02-01T04:28:19.620Z,99.9
2016-02-01T04:29:19.826Z,99.9
2016-02-01T04:30:19.504Z,99.9
2016-02-01T04:31:19.428Z,99.9
2016-02-01T04:32:19.400Z,99.9
2016-02-01T04:33:19.340Z,99.9
2016-02-01T04:34:19.266Z,99.9
2016-02-01T04:35:19.237Z,99.9
2016-02-01T04:36:19.379Z,99.9
2016-02-01T04:37:19.134Z,99.9
2016-02-01T04:38:19.043Z,99.9
2016-02-01T04:39:19.061Z,99.9
2016-02-01T04:40:18.940Z,99.9
2016-02-01T04:41:19.146Z,99.9
2016-02-01T04:42:18.852Z,99.9
2016-02-01T04:43:18.777Z,99.9
2016-02-01T04:44:18.732Z,99.9
2016-02-01T04:45:18.673Z,99.9
2016-02-01T04:46:18.644Z,99.9
2016-02-01T04:47:19.038Z,99.9
2016-02-01T04:48:18.541Z,99.9
2016-02-01T04:49:18.482Z,99.9
2016-02-01T04:50:18.813Z,99.9
2016-02-01T04:51:18.663Z,99.9
2016-02-01T04:52:18.323Z,99.9
2016-02-01T04:53:18.247Z,99.9
2016-02-01T04:54:18.220Z,99.9
2016-02-01T04:55:18.142Z,99.9
2016-02-01T04:56:18.082Z,99.9
2016-02-01T04:57:18.038Z,99.9
2016-02-01T04:58:17.978Z,99.9
2016-02-01T04:59:17.996Z,99.9
2016-02-01T05:00:17.921Z,99.9
2016-02-01T05:01:17.814Z,99.9
2016-02-01T05:02:17.771Z,99.9
2016-02-01T05:03:17.712Z,99.9
2016-02-01T05:04:17.669Z,99.9
2016-02-01T05:05:17.656Z,99.9
2016-02-01T05:06:17.582Z,99.9
2016-02-01T05:07:17.491Z,99.9
2016-02-01T05:08:17.447Z,99.9
2016-02-01T05:09:17.402Z,99.9
2016-02-01T05:10:17.405Z,99.9
2016-02-01T05:11:17.284Z,99.9
2016-02-01T05:12:17.224Z,99.9
2016-02-01T05:13:17.226Z,99.9
2016-02-01T05:14:17.120Z,99.9
2016-02-01T05:15:17.076Z,99.9
2016-02-01T05:16:17.016Z,99.9
2016-02-01T05:17:16.956Z,99.9
2016-02-01T05:18:16.928Z,99.9
2016-02-01T05:19:16.855Z,99.9
2016-02-01T05:20:16.794Z,99.9
2016-02-01T05:21:16.750Z,99.9
2016-02-01T05:22:16.708Z,99.9
2016-02-01T05:23:16.648Z,99.9
2016-02-01T05:24:16.605Z,99.9
2016-02-01T05:25:16.544Z,99.9
2016-02-01T05:26:16.532Z,99.9
2016-02-01T05:27:16.441Z,99.9
2016-02-01T05:28:16.366Z,99.9
2016-02-01T05:29:16.352Z,99.9
2016-02-01T05:30:16.496Z,99.9
2016-02-01T05:31:16.203Z,99.9
2016-02-01T05:32:16.159Z,99.9
2016-02-01T05:33:16.115Z,99.9
2016-02-01T05:34:16.273Z,99.9
2016-02-01T05:35:16.026Z,99.9
2016-02-01T05:36:15.952Z,99.9
2016-02-01T05:37:15.908Z,99.9
2016-02-01T05:38:16.068Z,99.9
2016-02-01T05:39:15.789Z,99.9
2016-02-01T05:40:15.761Z,99.9
2016-02-01T05:41:15.685Z,99.9
2016-02-01T05:42:15.861Z,99.9
2016-02-01T05:43:15.566Z,99.9
2016-02-01T05:44:15.522Z,99.9
2016-02-01T05:45:15.511Z,99.9
2016-02-01T05:46:15.434Z,99.9
2016-02-01T05:47:15.347Z,99.9
2016-02-01T05:48:15.335Z,99.9
2016-02-01T05:49:15.243Z,99.9
2016-02-01T05:50:15.184Z,99.9
2016-02-01T05:51:15.159Z,99.9
2016-02-01T05:52:15.083Z,99.9
2016-02-01T05:53:15.039Z,99.9
2016-02-01T05:54:15.027Z,99.9
2016-02-01T05:55:14.920Z,99.9
2016-02-01T05:56:14.877Z,99.9
2016-02-01T05:57:14.833Z,99.9
2016-02-01T05:58:14.775Z,99.9
2016-02-01T05:59:14.747Z,99.9
2016-02-01T06:00:14.656Z,99.9
2016-02-01T06:01:14.616Z,99.9
2016-02-01T06:02:14.556Z,99.9
2016-02-01T06:03:14.515Z,99.9
2016-02-01T06:04:14.486Z,99.9
2016-02-01T06:05:14.411Z,99.9
2016-02-01T06:06:14.335Z,99.9
2016-02-01T06:07:14.295Z,99.9
2016-02-01T06:08:14.236Z,99.9
2016-02-01T06:09:14.222Z,99.9
2016-02-01T06:10:14.225Z,99.9
2016-02-01T06:11:14.072Z,99.9
2016-02-01T06:12:14.013Z,99.9
2016-02-01T06:13:13.969Z,99.9
2016-02-01T06:14:13.910Z,99.9
2016-02-01T06:15:13.882Z,99.9
2016-02-01T06:16:13.808Z,99.9
2016-02-01T06:17:13.764Z,99.9
2016-02-01T06:18:13.721Z,99.9
2016-02-01T06:19:13.645Z,99.9
2016-02-01T06:20:13.616Z,99.9
2016-02-01T06:21:13.548Z,99.9
2016-02-01T06:22:13.470Z,99.9
2016-02-01T06:23:13.443Z,99.9
2016-02-01T06:24:13.399Z,99.9
2016-02-01T06:25:13.322Z,99.9
2016-02-01T06:26:13.278Z,99.9
2016-02-01T06:27:13.218Z,99.9
2016-02-01T06:28:13.177Z,99.9
2016-02-01T06:29:13.133Z,99.9
2016-02-01T06:30:13.057Z,99.9
2016-02-01T06:31:13.030Z,99.9
2016-02-01T06:32:12.956Z,99.9
2016-02-01T06:33:12.896Z,99.9
2016-02-01T06:34:12.899Z,99.9
2016-02-01T06:35:12.808Z,99.9
2016-02-01T06:36:12.732Z,99.9
2016-02-01T06:37:12.722Z,99.9
2016-02-01T06:38:11.897Z,99.9
2016-02-01T06:39:12.603Z,99.9
2016-02-01T06:40:12.527Z,99.9
2016-02-01T06:41:12.468Z,99.9
2016-02-01T06:42:12.424Z,99.9
2016-02-01T06:43:12.380Z,99.9
2016-02-01T06:44:12.324Z,99.9
2016-02-01T06:45:12.296Z,99.9
2016-02-01T06:46:12.205Z,99.9
2016-02-01T06:47:12.165Z,99.9
2016-02-01T06:48:12.324Z,99.9
2016-02-01T06:49:12.046Z,99.9
2016-02-01T06:50:12.002Z,99.9
2016-02-01T06:51:11.941Z,99.9
2016-02-01T06:52:11.882Z,99.9
2016-02-01T06:53:11.854Z,99.9
2016-02-01T06:54:11.779Z,99.9
2016-02-01T06:55:11.952Z,99.9
2016-02-01T06:56:11.721Z,99.9
2016-02-01T06:57:11.618Z,99.9
2016-02-01T06:58:11.573Z,99.9
2016-02-01T06:59:11.529Z,99.9
2016-02-01T07:00:11.454Z,99.9
2016-02-01T07:01:11.424Z,99.9
2016-02-01T07:02:11.382Z,99.9
2016-02-01T07:03:11.306Z,99.9
2016-02-01T07:04:11.262Z,99.9
2016-02-01T07:05:11.186Z,99.9
2016-02-01T07:06:11.376Z,99.9
2016-02-01T07:07:11.082Z,99.9
2016-02-01T07:08:11.038Z,99.9
2016-02-01T07:09:10.978Z,99.9
2016-02-01T07:10:10.918Z,99.9
2016-02-01T07:11:10.859Z,99.9
2016-02-01T07:12:10.814Z,99.9
2016-02-01T07:13:10.756Z,99.9
2016-02-01T07:14:10.697Z,99.9
2016-02-01T07:15:10.887Z,99.9
2016-02-01T07:16:10.590Z,99.9
2016-02-01T07:17:10.546Z,99.9
2016-02-01T07:18:10.499Z,99.9
2016-02-01T07:19:10.424Z,99.9
2016-02-01T07:20:10.380Z,99.9
2016-02-01T07:21:10.320Z,99.9
2016-02-01T07:22:10.276Z,99.9
2016-02-01T07:23:10.451Z,99.9
2016-02-01T07:24:10.173Z,99.9
2016-02-01T07:25:10.112Z,99.9
2016-02-01T07:26:10.100Z,99.9
2016-02-01T07:27:10.011Z,99.9
2016-02-01T07:28:09.966Z,99.9
2016-02-01T07:29:09.892Z,99.9
2016-02-01T07:30:09.848Z,99.9
2016-02-01T07:31:09.788Z,99.9
2016-02-01T07:32:09.728Z,99.9
2016-02-01T07:33:09.675Z,99.9
2016-02-01T07:34:09.631Z,99.9
2016-02-01T07:35:09.571Z,99.9
2016-02-01T07:36:09.527Z,99.9
2016-02-01T07:37:09.468Z,99.9
2016-02-01T07:38:09.408Z,99.9
2016-02-01T07:39:09.349Z,99.9
2016-02-01T07:40:09.304Z,99.9
2016-02-01T07:41:09.245Z,99.9
2016-02-01T07:42:09.185Z,99.9
2016-02-01T07:43:09.158Z,99.9
2016-02-01T07:44:09.083Z,99.9
2016-02-01T07:45:09.039Z,99.9
2016-02-01T07:46:08.979Z,99.9
2016-02-01T07:47:08.904Z,99.9
2016-02-01T07:48:08.859Z,99.9
2016-02-01T07:49:09.039Z,99.9
2016-02-01T07:50:08.745Z,99.9
2016-02-01T07:51:08.700Z,99.9
2016-02-01T07:52:08.641Z,99.9
2016-02-01T07:53:08.597Z,99.9
2016-02-01T07:54:08.538Z,99.9
2016-02-01T07:55:08.478Z,99.9
2016-02-01T07:56:08.449Z,99.9
2016-02-01T07:57:08.374Z,99.9
2016-02-01T07:58:08.329Z,99.9
2016-02-01T07:59:08.254Z,99.9
2016-02-01T08:00:08.195Z,99.9
2016-02-01T08:01:08.151Z,99.9
2016-02-01T08:02:08.325Z,99.9
2016-02-01T08:03:08.047Z,99.9
2016-02-01T08:04:07.999Z,99.9
2016-02-01T08:05:07.940Z,99.9
2016-02-01T08:06:07.881Z,99.9
2016-02-01T08:07:07.820Z,99.9
2016-02-01T08:08:07.780Z,99.9
2016-02-01T08:09:07.721Z,99.9
2016-02-01T08:10:07.662Z,99.9
2016-02-01T08:11:07.615Z,99.9
2016-02-01T08:12:07.570Z,99.9
2016-02-01T08:13:07.495Z,99.9
2016-02-01T08:14:07.498Z,99.9
2016-02-01T08:15:07.423Z,99.9
2016-02-01T08:16:07.347Z,99.9
2016-02-01T08:17:07.131Z,99.9
2016-02-01T08:18:07.244Z,99.9
2016-02-01T08:19:07.201Z,99.9
2016-02-01T08:20:07.141Z,99.9
2016-02-01T08:21:07.082Z,99.9
2016-02-01T08:22:07.022Z,99.9
2016-02-01T08:23:06.978Z,99.9
2016-02-01T08:24:06.919Z,99.9
2016-02-01T08:25:06.875Z,99.9
2016-02-01T08:26:06.815Z,99.9
2016-02-01T08:27:06.755Z,99.9
2016-02-01T08:28:06.727Z,99.9
2016-02-01T08:29:06.652Z,99.9
2016-02-01T08:30:06.591Z,99.9
2016-02-01T08:31:06.547Z,99.9
2016-02-01T08:32:06.504Z,99.9
2016-02-01T08:33:06.431Z,99.9
2016-02-01T08:34:06.387Z,99.9
2016-02-01T08:35:06.343Z,99.9
2016-02-01T08:36:06.284Z,99.9
2016-02-01T08:37:06.224Z,99.9
2016-02-01T08:38:06.181Z,99.9
2016-02-01T08:39:06.355Z,99.9
2016-02-01T08:40:06.062Z,99.9
2016-02-01T08:41:06.018Z,99.9
2016-02-01T08:42:05.973Z,99.9
2016-02-01T08:43:05.929Z,99.9
2016-02-01T08:44:05.870Z,99.9
2016-02-01T08:45:05.795Z,99.9
2016-02-01T08:46:05.750Z,99.9
2016-02-01T08:47:05.705Z,99.9
2016-02-01T08:48:05.648Z,99.9
2016-02-01T08:49:05.589Z,99.9
2016-02-01T08:50:05.545Z,99.9
2016-02-01T08:51:05.485Z,99.9
2016-02-01T08:52:05.457Z,99.9
2016-02-01T08:53:05.382Z,99.9
2016-02-01T08:54:05.322Z,99.9
2016-02-01T08:55:05.280Z,99.9
2016-02-01T08:56:05.220Z,99.9
2016-02-01T08:57:05.160Z,99.9
2016-02-01T08:58:05.116Z,99.9
2016-02-01T08:59:05.056Z,99.9
2016-02-01T09:00:04.997Z,99.9
2016-02-01T09:01:04.953Z,99.9
2016-02-01T09:02:04.893Z,99.9
2016-02-01T09:03:04.833Z,99.9
2016-02-01T09:04:04.806Z,99.9
2016-02-01T09:05:04.980Z,99.9
2016-02-01T09:06:04.686Z,99.9
2016-02-01T09:07:04.642Z,99.9
2016-02-01T09:08:04.816Z,99.9
2016-02-01T09:09:04.524Z,99.9
2016-02-01T09:10:04.496Z,99.9
2016-02-01T09:11:04.420Z,99.9
2016-02-01T09:12:04.360Z,99.9
2016-02-01T09:13:04.317Z,99.9
2016-02-01T09:14:04.491Z,99.9
2016-02-01T09:15:04.213Z,99.9
2016-02-01T09:16:04.154Z,99.9
2016-02-01T09:17:04.093Z,99.9
2016-02-01T09:18:04.050Z,99.9
2016-02-01T09:19:04.004Z,99.9
2016-02-01T09:20:03.953Z,99.9
2016-02-01T09:21:03.893Z,99.9
2016-02-01T09:22:03.839Z,99.9
2016-02-01T09:23:03.778Z,99.9
2016-02-01T09:24:03.734Z,99.9
2016-02-01T09:25:03.691Z,99.9
2016-02-01T09:26:03.613Z,99.9
2016-02-01T09:27:03.804Z,99.9
2016-02-01T09:28:03.526Z,99.9
2016-02-01T09:29:03.452Z,99.9
2016-02-01T09:30:03.425Z,99.9
2016-02-01T09:31:03.344Z,99.9
2016-02-01T09:32:03.270Z,99.9
2016-02-01T09:33:03.227Z,99.9
2016-02-01T09:34:03.405Z,99.9
2016-02-01T09:35:03.081Z,99.9
2016-02-01T09:36:03.013Z,99.9
2016-02-01T09:37:02.964Z,99.9
2016-02-01T09:38:02.899Z,99.9
2016-02-01T09:39:02.865Z,99.9
2016-02-01T09:40:03.019Z,99.9
2016-02-01T09:41:02.726Z,99.9
2016-02-01T09:42:02.727Z,99.9
2016-02-01T09:43:02.619Z,99.9
2016-02-01T09:44:02.573Z,99.9
2016-02-01T09:45:02.512Z,99.9
2016-02-01T09:46:02.498Z,99.9
2016-02-01T09:47:02.410Z,99.9
2016-02-01T09:48:02.348Z,99.9
2016-02-01T09:49:02.536Z,99.9
2016-02-01T09:50:02.244Z,99.9
2016-02-01T09:51:02.192Z,99.9
2016-02-01T09:52:02.133Z,99.9
2016-02-01T09:53:02.089Z,99.9
2016-02-01T09:54:02.030Z,99.9
2016-02-01T09:55:01.985Z,99.9
2016-02-01T09:56:01.910Z,99.9
2016-02-01T09:57:01.912Z,99.9
2016-02-01T09:58:01.805Z,99.9
2016-02-01T09:59:01.762Z,99.9
2016-02-01T10:00:01.717Z,99.9
2016-02-01T10:01:01.660Z,99.9
2016-02-01T10:02:01.600Z,99.9
2016-02-01T10:03:01.556Z,99.9
2016-02-01T10:04:01.496Z,99.9
2016-02-01T10:05:01.437Z,99.9
2016-02-01T10:06:01.377Z,99.9
2016-02-01T10:07:01.333Z,99.9
2016-02-01T10:08:01.305Z,99.9
2016-02-01T10:09:01.229Z,99.9
2016-02-01T10:10:01.174Z,99.9
2016-02-01T10:11:01.130Z,99.9
2016-02-01T10:12:01.070Z,99.9
2016-02-01T10:13:01.026Z,99.9
2016-02-01T10:14:00.966Z,99.9
2016-02-01T10:15:00.922Z,99.9
2016-02-01T10:16:00.862Z,99.9
2016-02-01T10:17:00.803Z,99.9
2016-02-01T10:18:00.742Z,99.9
2016-02-01T10:19:00.698Z,99.9
2016-02-01T10:20:00.655Z,99.9
2016-02-01T10:21:00.596Z,99.9
2016-02-01T10:22:00.554Z,99.9
2016-02-01T10:23:00.493Z,99.9
2016-02-01T10:24:00.434Z,99.9
2016-02-01T10:25:00.390Z,99.9
2016-02-01T10:26:00.331Z,99.9
2016-02-01T10:27:00.287Z,99.9
2016-02-01T10:28:00.227Z,99.9
2016-02-01T10:29:00.168Z,99.9
2016-02-01T10:30:00.123Z,99.9
2016-02-01T10:30:59.925Z,99.9
2016-02-01T10:32:00.022Z,99.9
2016-02-01T10:32:59.977Z,99.9
2016-02-01T10:33:59.918Z,99.9
2016-02-01T10:35:00.093Z,99.9
2016-02-01T10:35:59.855Z,99.9
2016-02-01T10:36:59.755Z,99.9
2016-02-01T10:37:59.728Z,99.9
2016-02-01T10:38:59.763Z,99.9
2016-02-01T10:39:59.736Z,99.9
2016-02-01T10:40:59.534Z,99.9
2016-02-01T10:41:59.616Z,99.9
2016-02-01T10:42:59.447Z,99.9
2016-02-01T10:43:59.433Z,99.9
2016-02-01T10:44:59.334Z,99.9
2016-02-01T10:45:59.289Z,99.9
2016-02-01T10:46:59.135Z,99.9
2016-02-01T10:47:59.185Z,99.9
2016-02-01T10:48:59.125Z,99.9
2016-02-01T10:49:59.081Z,99.9
2016-02-01T10:50:59.018Z,99.9
2016-02-01T10:51:58.974Z,99.9
2016-02-01T10:52:59.163Z,99.9
2016-02-01T10:53:58.854Z,99.9
2016-02-01T10:54:59.044Z,99.9
2016-02-01T10:55:58.753Z,99.9
2016-02-01T10:56:58.708Z,99.9
2016-02-01T10:57:58.664Z,99.9
2016-02-01T10:58:58.605Z,99.9
2016-02-01T10:59:58.545Z,99.9
2016-02-01T11:00:58.502Z,99.9
2016-02-01T11:01:58.442Z,99.9
2016-02-01T11:02:58.414Z,99.9
2016-02-01T11:03:58.338Z,99.9
2016-02-01T11:04:58.294Z,99.9
2016-02-01T11:05:58.281Z,99.9
2016-02-01T11:06:58.237Z,99.9
2016-02-01T11:07:58.146Z,99.9
2016-02-01T11:08:58.101Z,99.9
2016-02-01T11:09:58.041Z,99.9
2016-02-01T11:10:57.997Z,99.9
2016-02-01T11:11:57.940Z,99.9
2016-02-01T11:12:57.880Z,99.9
2016-02-01T11:13:57.851Z,99.9
2016-02-01T11:14:57.776Z,99.9
2016-02-01T11:15:57.717Z,99.9
2016-02-01T11:16:57.691Z,99.9
2016-02-01T11:17:57.850Z,99.9
2016-02-01T11:18:57.619Z,99.9
2016-02-01T11:19:57.544Z,99.9
2016-02-01T11:20:57.456Z,99.9
2016-02-01T11:21:57.412Z,99.9
2016-02-01T11:22:57.352Z,99.9
2016-02-01T11:23:57.322Z,99.9
2016-02-01T11:24:57.263Z,99.9
2016-02-01T11:25:57.219Z,99.9
2016-02-01T11:26:57.144Z,99.9
2016-02-01T11:27:57.099Z,99.9
2016-02-01T11:28:57.039Z,99.9
2016-02-01T11:29:56.995Z,99.9
2016-02-01T11:30:56.951Z,99.9
2016-02-01T11:31:56.891Z,99.9
2016-02-01T11:32:56.835Z,99.9
2016-02-01T11:33:56.774Z,99.9
2016-02-01T11:34:56.730Z,99.9
2016-02-01T11:35:56.686Z,99.9
2016-02-01T11:36:56.642Z,99.9
2016-02-01T11:37:56.567Z,99.9
2016-02-01T11:38:56.522Z,99.9
2016-02-01T11:39:56.464Z,99.9
2016-02-01T11:40:56.420Z,99.9
2016-02-01T11:41:56.411Z,99.9
2016-02-01T11:42:56.304Z,99.9
2016-02-01T11:43:56.261Z,99.9
2016-02-01T11:44:56.216Z,99.9
2016-02-01T11:45:56.392Z,99.9
2016-02-01T11:46:56.332Z,99.9
2016-02-01T11:47:56.052Z,99.9
2016-02-01T11:48:56.009Z,99.9
2016-02-01T11:49:55.949Z,99.9
2016-02-01T11:50:55.905Z,99.9
2016-02-01T11:51:55.845Z,99.9
2016-02-01T11:52:55.799Z,99.9
2016-02-01T11:53:55.739Z,99.9
2016-02-01T11:54:55.711Z,99.9
2016-02-01T11:55:55.635Z,99.9
2016-02-01T11:56:55.575Z,99.9
2016-02-01T11:57:55.534Z,99.9
2016-02-01T11:58:55.490Z,99.9
2016-02-01T11:59:55.430Z,99.9
2016-02-01T12:00:55.386Z,99.9
2016-02-01T12:01:55.328Z,99.9
2016-02-01T12:02:55.283Z,99.9
2016-02-01T12:03:55.239Z,99.9
2016-02-01T12:04:55.164Z,99.9
2016-02-01T12:05:55.135Z,99.9
2016-02-01T12:06:55.062Z,99.9
2016-02-01T12:07:55.017Z,99.9
2016-02-01T12:08:54.958Z,99.9
2016-02-01T12:09:54.898Z,99.9
2016-02-01T12:10:54.855Z,99.9
2016-02-01T12:11:54.794Z,99.9
2016-02-01T12:12:54.750Z,99.9
2016-02-01T12:13:54.707Z,99.9
2016-02-01T12:14:54.648Z,99.9
2016-02-01T12:15:54.603Z,99.9
2016-02-01T12:16:54.543Z,99.9
2016-02-01T12:17:54.503Z,99.9
2016-02-01T12:18:54.489Z,99.9
2016-02-01T12:19:54.429Z,99.9
2016-02-01T12:20:54.947Z,99.9
2016-02-01T12:21:54.294Z,99.9
2016-02-01T12:22:54.238Z,99.9
2016-02-01T12:23:54.225Z,99.9
2016-02-01T12:24:54.363Z,99.9
2016-02-01T12:25:54.086Z,99.9
2016-02-01T12:26:54.027Z,99.9
2016-02-01T12:27:53.982Z,99.9
2016-02-01T12:28:53.922Z,99.9
2016-02-01T12:29:53.910Z,99.9
2016-02-01T12:30:53.834Z,99.9
2016-02-01T12:31:53.774Z,99.9
2016-02-01T12:32:53.729Z,99.9
2016-02-01T12:33:53.671Z,99.9
2016-02-01T12:34:53.610Z,99.9
2016-02-01T12:35:53.551Z,99.3
2016-02-01T12:36:53.506Z,99.8
2016-02-01T12:37:53.446Z,99.9
2016-02-01T12:38:53.419Z,99.7
2016-02-01T12:39:53.344Z,99.2
2016-02-01T12:40:53.549Z,98.9
2016-02-01T12:41:53.255Z,99.5
2016-02-01T12:42:53.195Z,99.5
2016-02-01T12:43:53.135Z,98.2
2016-02-01T12:44:53.092Z,97.9
2016-02-01T12:45:53.047Z,98.2
2016-02-01T12:46:52.988Z,98.5
2016-02-01T12:47:52.931Z,98.4
2016-02-01T12:48:52.886Z,97.8
2016-02-01T12:49:52.812Z,97.8
2016-02-01T12:50:52.784Z,97.7
2016-02-01T12:51:52.723Z,97
2016-02-01T12:52:52.665Z,97.2
2016-02-01T12:53:52.622Z,97.3
2016-02-01T12:54:52.560Z,96.7
2016-02-01T12:55:52.517Z,96.6
2016-02-01T12:56:52.456Z,96.7
2016-02-01T12:57:52.631Z,95.2
2016-02-01T12:58:52.354Z,95.5
2016-02-01T12:59:52.309Z,95
2016-02-01T13:00:52.266Z,94.8
2016-02-01T13:01:52.205Z,94.2
2016-02-01T13:02:52.146Z,94.6
2016-02-01T13:03:52.089Z,94
2016-02-01T13:04:52.509Z,94.8
2016-02-01T13:05:51.981Z,95.2
2016-02-01T13:06:51.952Z,95.3
2016-02-01T13:07:51.877Z,95.2
2016-02-01T13:08:51.820Z,95.1
2016-02-01T13:09:51.776Z,95.4
2016-02-01T13:10:51.717Z,94.5
2016-02-01T13:11:51.689Z,93.1
2016-02-01T13:12:51.629Z,94
2016-02-01T13:13:51.787Z,94
2016-02-01T13:14:51.509Z,93.9
2016-02-01T13:15:51.464Z,94.2
2016-02-01T13:16:51.405Z,93.9
2016-02-01T13:17:51.345Z,93.7